Terminal Aerodrome Forecast
Issued by NWS Duluth, MN

Home | Current Version | Previous Version | Text Only | Print | Product List | Glossary On
Versions: 1 2 3 4 5 6 7 8 9 10 11 12 13 14 15 16 17 18 19 20 21 22 23
000
FTUS43 KDLH 272200 AAB
TAFDLH
TAF AMD
KDLH 272235Z 2723/2818 27007KT P6SM BKN070
     FM280300 27005KT P6SM BKN025 OVC050
     FM280800 30009KT P6SM OVC025
      TEMPO 2808/2812 32010KT -SN BKN018
     FM281400 33012KT P6SM SCT030=

USA.gov is the U.S. government's official web portal to all federal, state and local government web resources and services.